Impacts METAR Board INFO
IDs:

KSAN - San Diego Intl Arpt, CA, US

Updated at: 2032 UTC 22 Feb 2018
Potential Impact None Slight Moderate High
Time22/08Z 22/09Z 22/10Z 22/11Z 22/12Z 22/13Z 22/14Z 22/15Z 22/16Z 22/17Z 22/18Z 22/19Z 22/20Z
VIS10 10 10 10 10 10 10 10 10 10 10 10 10
CIG-- -- -- 46 -- 60 43 60 55 -- 50 50 35
CoverFEWSCTSCTBKNSCTBKNBKNBKNBKNSCTBKNBKNBKN
FltCatVFRVFRVFRVFRVFRVFRVFRVFRVFRVFRVFRVFRVFR
WX--------------------------
WDir000040012012080160170200180
WSpd0 0 0 0 3 0 6 7 3 7 10 8 10
WGst-- -- -- -- -- -- -- -- -- -- -- -- --
Raw hourly METARs
KSAN 220751Z 00000KT 10SM FEW045 11/04 A3022 RMK AO2 SLP231 T01060039 401560078
KSAN 220851Z 00000KT 10SM SCT045 10/03 A3021 RMK AO2 SLP231 T01000033 52003
KSAN 220951Z 00000KT 10SM SCT045 10/03 A3022 RMK AO2 SLP232 T01000033
KSAN 221051Z 00000KT 10SM BKN046 09/03 A3022 RMK AO2 SLP232 T00940033
KSAN 221151Z 04003KT 10SM SCT050 08/03 A3022 RMK AO2 SLP232 T00830028 10117 20083 51001
KSAN 221251Z 00000KT 10SM FEW050 BKN060 09/03 A3023 RMK AO2 SLP234 T00890028
KSAN 221351Z 12006KT 10SM BKN043 BKN060 09/02 A3024 RMK AO2 SLP238 VCSH T00940022
KSAN 221451Z 12007KT 10SM SCT040 BKN060 09/02 A3025 RMK AO2 SLP242 VCSH T00940022 53010
KSAN 221551Z 08003KT 10SM SCT040 BKN055 10/03 A3028 RMK AO2 RAB19E29 SLP251 VCSH P0000 T01000028
KSAN 221651Z 16007KT 10SM SCT038 SCT055 12/03 A3028 RMK AO2 SLP254 T01220033
KSAN 221751Z 17010KT 10SM SCT038 BKN050 13/07 A3029 RMK AO2 SLP257 60000 T01330072 10133 20083 51014
KSAN 221851Z 20008KT 10SM SCT038 BKN050 14/07 A3029 RMK AO2 SLP258 T01440067
KSAN 221951Z 18010KT 10SM SCT028 BKN035 BKN045 14/07 A3028 RMK AO2 SLP252 T01440072